Time;durP1;ratioP1;P1;durP2;ratioP2;P2;SDS_P1;SDS_P2;PMS_P1;PMS_P2;Temp;Humidity;BMP_temperature;BMP_pressure;BME280_temperature;BME280_humidity;BME280_pressure;Samples;Min_cycle;Max_cycle;Signal;HPM_P1;HPM_P2
2024/04/05 07:32:44;;;;;;;2.23;0.80;;;;;;;18.01;100.00;98764.38;5150723;27;21096;-82
2024/04/05 07:35:11;;;;;;;2.60;1.03;;;;;;;19.17;100.00;98780.78;5132652;27;39660;-82
2024/04/05 07:37:38;;;;;;;3.93;1.17;;;;;;;19.85;94.98;98793.72;5132778;27;42591;-83
2024/04/05 07:40:06;;;;;;;2.10;1.00;;;;;;;20.27;90.23;98786.63;5132546;27;41762;-83
2024/04/05 07:42:35;;;;;;;2.80;1.23;;;;;;;20.38;81.57;98786.38;5115157;27;43816;-83
2024/04/05 07:45:03;;;;;;;2.63;0.90;;;;;;;20.57;77.38;98808.66;5132639;27;40032;-83
2024/04/05 07:47:33;;;;;;;2.30;1.03;;;;;;;20.75;75.50;98801.38;5115688;27;41333;-84
2024/04/05 07:50:01;;;;;;;1.87;1.00;;;;;;;20.89;77.24;98787.28;5115361;27;43224;-83
2024/04/05 07:52:29;;;;;;;1.97;0.87;;;;;;;21.28;73.55;98803.75;5132928;27;42359;-83
2024/04/05 07:54:55;;;;;;;2.17;0.70;;;;;;;21.84;73.76;98821.84;5133137;27;40323;-83
2024/04/05 07:57:23;;;;;;;3.07;1.20;;;;;;;22.35;68.08;98821.69;5115077;27;41438;-83
2024/04/05 07:59:50;;;;;;;4.80;1.07;;;;;;;22.81;68.12;98802.00;5146173;27;43576;-82
2024/04/05 08:02:20;;;;;;;3.20;1.13;;;;;;;23.43;66.03;98812.00;5126570;27;42094;-84
2024/04/05 08:04:46;;;;;;;1.83;1.10;;;;;;;23.78;58.97;98846.59;5133007;27;38881;-83
2024/04/05 08:07:15;;;;;;;2.47;1.00;;;;;;;23.88;60.74;98830.97;5114957;27;40732;-83
2024/04/05 08:09:43;;;;;;;2.40;1.10;;;;;;;23.83;56.41;98860.44;5149600;27;42844;-83
2024/04/05 08:12:10;;;;;;;2.57;1.13;;;;;;;23.67;57.00;98849.72;5114878;27;42661;-83
2024/04/05 08:14:38;;;;;;;1.50;0.97;;;;;;;23.59;56.97;98842.50;5115190;27;38953;-83
2024/04/05 08:17:06;;;;;;;3.73;1.10;;;;;;;23.64;58.82;98837.38;5132145;27;41044;-84
2024/04/05 08:19:32;;;;;;;2.40;0.90;;;;;;;23.73;58.85;98827.38;5131949;27;41809;-84
2024/04/05 08:22:00;;;;;;;2.63;1.13;;;;;;;24.10;56.09;98850.09;5150760;27;42493;-83
2024/04/05 08:24:28;;;;;;;4.37;1.13;;;;;;;24.45;54.98;98846.75;5114773;27;38990;-83
2024/04/05 08:26:56;;;;;;;3.90;1.20;;;;;;;24.91;53.79;98841.16;5131745;27;41691;-83
2024/04/05 08:29:24;;;;;;;2.20;1.30;;;;;;;25.41;51.75;98841.22;5131977;27;42990;-83
2024/04/05 08:31:52;;;;;;;1.23;1.07;;;;;;;26.02;52.32;98847.09;5148413;27;42539;-83
2024/04/05 08:34:21;;;;;;;1.03;0.70;;;;;;;26.38;51.11;98835.31;5114768;27;38621;-83
2024/04/05 08:36:49;;;;;;;2.50;1.13;;;;;;;26.84;49.41;98855.47;5114765;27;41797;-83
2024/04/05 08:39:17;;;;;;;2.00;0.90;;;;;;;27.37;47.30;98839.47;5131798;27;42879;-85
2024/04/05 08:41:48;;;;;;;1.27;0.90;;;;;;;28.56;45.83;98858.78;5148475;27;42147;-84
2024/04/05 08:44:15;;;;;;;1.60;0.90;;;;;;;29.91;42.91;98866.13;5117291;27;39147;-84
2024/04/05 08:46:43;;;;;;;1.33;0.90;;;;;;;31.19;41.36;98888.41;5117579;27;40690;-84
2024/04/05 08:49:10;;;;;;;2.45;0.90;;;;;;;32.11;39.40;98874.38;5101052;27;43008;-84
2024/04/05 08:51:40;;;;;;;1.17;0.77;;;;;;;32.67;36.47;98914.19;5100380;27;41146;-84
2024/04/05 08:54:07;;;;;;;2.13;0.80;;;;;;;33.39;35.70;98920.28;5136295;27;39819;-85
2024/04/05 08:56:36;;;;;;;2.03;1.25;;;;;;;34.25;34.65;98912.97;5117632;27;41741;-84
2024/04/05 08:59:04;;;;;;;2.67;1.15;;;;;;;35.27;32.51;98905.34;5118108;27;42091;-86
2024/04/05 09:01:31;;;;;;;1.77;1.33;;;;;;;36.14;31.98;98903.66;5134537;27;43130;-85
2024/04/05 09:03:58;;;;;;;2.15;1.10;;;;;;;37.33;29.69;98928.16;5117680;27;39869;-84
2024/04/05 09:06:26;;;;;;;1.02;0.75;;;;;;;37.89;28.98;98920.94;5100666;27;42281;-84
2024/04/05 09:08:52;;;;;;;1.52;1.00;;;;;;;38.68;28.30;98901.19;5117609;27;42381;-86
2024/04/05 09:11:22;;;;;;;1.25;0.70;;;;;;;38.86;27.93;98912.81;5100340;27;42466;-84
2024/04/05 09:13:56;;;;;;;1.50;0.90;;;;;;;38.68;27.69;98890.13;5100956;27;39122;-85
2024/04/05 09:16:26;;;;;;;2.50;1.13;;;;;;;39.24;26.85;98903.91;5117120;27;40823;-84
2024/04/05 09:19:02;;;;;;;1.35;0.85;;;;;;;39.43;25.97;98905.00;5100578;27;41715;-85
2024/04/05 09:21:29;;;;;;;1.67;1.00;;;;;;;39.26;26.25;98895.31;5116392;27;42323;-85
2024/04/05 09:23:57;;;;;;;1.17;0.85;;;;;;;39.12;26.39;98878.44;5118039;27;39763;-85
2024/04/05 09:26:26;;;;;;;2.15;0.88;;;;;;;38.93;26.05;98880.13;5117280;27;41688;-85
2024/04/05 09:28:59;;;;;;;1.80;0.80;;;;;;;38.40;26.38;98872.09;5117127;27;44177;-85
2024/04/05 09:31:28;;;;;;;1.73;0.70;;;;;;;37.71;26.67;98896.56;5116309;27;42612;-85
2024/04/05 09:34:05;;;;;;;2.00;0.82;;;;;;;36.72;27.85;98871.66;5100454;27;40437;-85
2024/04/05 09:36:34;;;;;;;1.05;0.50;;;;;;;35.82;27.66;98885.13;5116707;27;42034;-85
2024/04/05 09:39:03;;;;;;;1.35;0.70;;;;;;;35.76;28.59;98877.03;5117087;27;41687;-85
2024/04/05 09:41:33;;;;;;;1.88;0.52;;;;;;;34.89;29.41;98872.28;5099687;27;41046;-85
2024/04/05 09:44:04;;;;;;;0.90;0.70;;;;;;;33.81;29.94;98857.75;5117407;27;41279;-81
2024/04/05 09:46:36;;;;;;;1.25;0.60;;;;;;;33.24;30.91;98845.88;5099755;27;40839;-85
2024/04/05 09:49:05;;;;;;;1.27;0.60;;;;;;;32.65;31.95;98820.34;5099813;27;42111;-84
2024/04/05 09:51:42;;;;;;;2.20;0.70;;;;;;;32.57;33.05;98814.38;5134896;27;42604;-84
2024/04/05 09:54:12;;;;;;;2.78;0.73;;;;;;;32.52;32.55;98814.28;5098682;27;40321;-84
2024/04/05 09:56:39;;;;;;;0.82;0.50;;;;;;;32.45;32.73;98795.19;5099472;27;42426;-85
2024/04/05 09:59:11;;;;;;;0.50;0.50;;;;;;;32.45;34.12;98776.00;5116843;27;42855;-85
2024/04/05 10:01:41;;;;;;;1.95;0.90;;;;;;;32.27;32.37;98817.25;5115474;27;42171;-85
2024/04/05 10:04:09;;;;;;;1.85;1.25;;;;;;;32.10;33.41;98812.41;5116487;27;39676;-84
2024/04/05 10:06:38;;;;;;;1.38;0.60;;;;;;;32.46;33.59;98791.38;5099352;27;42059;-87
2024/04/05 10:09:15;;;;;;;1.00;0.80;;;;;;;33.22;32.26;98793.09;5116553;27;42857;-84
2024/04/05 10:11:42;;;;;;;0.68;0.57;;;;;;;33.74;31.80;98787.53;5099260;27;41037;-84
2024/04/05 10:14:10;;;;;;;1.88;0.70;;;;;;;33.78;31.15;98795.03;5116799;27;39464;-83
2024/04/05 10:16:37;;;;;;;1.63;0.80;;;;;;;33.53;32.53;98778.06;5116104;27;40803;-84
2024/04/05 10:19:12;;;;;;;1.48;0.80;;;;;;;33.35;33.12;98781.03;5116453;27;41820;-84
2024/04/05 10:21:40;;;;;;;3.60;0.70;;;;;;;33.37;31.64;98778.88;5099216;27;42303;-84
2024/04/05 10:24:08;;;;;;;2.45;0.77;;;;;;;33.00;32.19;98750.91;5099316;27;39612;-87
2024/04/05 10:26:34;;;;;;;2.33;0.80;;;;;;;33.39;31.90;98749.22;5133311;27;42218;-84
2024/04/05 10:29:09;;;;;;;1.45;0.90;;;;;;;33.06;31.53;98717.84;5099145;27;41635;-85
2024/04/05 10:31:36;;;;;;;1.58;0.70;;;;;;;33.05;32.06;98749.09;5098022;27;42168;-86
2024/04/05 10:34:04;;;;;;;1.00;0.75;;;;;;;33.63;31.55;98767.25;5099383;27;38980;-85
2024/04/05 10:36:32;;;;;;;2.35;0.80;;;;;;;34.37;29.45;98787.25;5098638;27;42541;-87
2024/04/05 10:39:00;;;;;;;0.70;0.40;;;;;;;35.01;28.92;98715.25;5116066;27;43197;-84
2024/04/05 10:41:27;;;;;;;0.60;0.60;;;;;;;35.68;27.59;98754.31;5098967;27;41771;-85
2024/04/05 10:44:01;;;;;;;1.80;0.63;;;;;;;36.33;27.36;98758.78;5116976;27;39822;-84
2024/04/05 10:46:30;;;;;;;1.20;0.68;;;;;;;36.45;27.59;98748.38;5115723;27;43448;-85
2024/04/05 10:48:58;;;;;;;1.75;0.52;;;;;;;36.30;27.25;98740.84;5099093;27;42566;-84
2024/04/05 10:51:25;;;;;;;1.08;0.63;;;;;;;36.66;27.24;98730.00;5131969;27;40923;-83
2024/04/05 10:53:54;;;;;;;1.42;0.70;;;;;;;37.08;27.37;98727.19;5116113;27;38619;-86
2024/04/05 10:56:21;;;;;;;0.80;0.47;;;;;;;36.99;26.04;98750.88;5135014;27;41663;-84
2024/04/05 10:58:49;;;;;;;0.85;0.57;;;;;;;35.89;26.41;98747.91;5137095;27;42891;-84
2024/04/05 11:01:17;;;;;;;1.48;0.68;;;;;;;35.06;28.32;98724.44;5116605;27;42580;-85
2024/04/05 11:03:45;;;;;;;1.48;0.65;;;;;;;35.08;27.89;98736.00;5099850;27;39274;-84
2024/04/05 11:06:12;;;;;;;1.20;0.60;;;;;;;35.00;28.27;98728.19;5115199;27;40819;-84
2024/04/05 11:08:40;;;;;;;1.55;0.57;;;;;;;34.64;29.09;98690.28;5115632;27;42928;-83
2024/04/05 11:11:11;;;;;;;1.05;0.65;;;;;;;34.73;29.60;98675.84;5115380;27;41949;-84
2024/04/05 11:13:38;;;;;;;2.15;0.60;;;;;;;34.89;27.93;98715.41;5098208;27;40298;-84
2024/04/05 11:16:05;;;;;;;1.10;0.77;;;;;;;34.55;29.21;98687.97;5098176;27;41067;-84
2024/04/05 11:18:37;;;;;;;1.83;0.70;;;;;;;34.82;28.25;98717.53;5115028;27;42441;-85
2024/04/05 11:21:04;;;;;;;1.35;0.68;;;;;;;35.60;27.46;98718.97;5114830;27;41286;-86
2024/04/05 11:23:32;;;;;;;2.08;0.60;;;;;;;35.46;26.90;98731.50;5115281;27;39983;-85
2024/04/05 11:25:59;;;;;;;0.88;0.47;;;;;;;35.43;28.71;98696.22;5098052;27;42638;-86
2024/04/05 11:28:28;;;;;;;1.23;0.70;;;;;;;35.69;27.57;98714.66;5133471;27;42770;-85
2024/04/05 11:30:54;;;;;;;2.00;0.60;;;;;;;34.88;27.03;98698.06;5131778;27;43008;-84
2024/04/05 11:33:23;;;;;;;1.90;0.77;;;;;;;34.04;29.12;98688.31;5097527;27;38913;-86
2024/04/05 11:35:51;;;;;;;1.48;0.68;;;;;;;33.38;29.30;98649.56;5132012;27;41805;-85
2024/04/05 11:38:18;;;;;;;1.67;1.00;;;;;;;33.22;29.50;98669.56;5097944;27;42010;-84
2024/04/05 11:40:45;;;;;;;2.47;0.70;;;;;;;33.30;30.03;98651.88;5097753;27;41150;-85
2024/04/05 11:43:13;;;;;;;1.40;0.60;;;;;;;33.20;30.83;98658.00;5133408;27;39851;-85
2024/04/05 11:45:43;;;;;;;1.85;0.70;;;;;;;33.31;29.80;98675.50;5097463;27;42434;-85
2024/04/05 11:48:10;;;;;;;1.02;0.75;;;;;;;33.48;29.07;98674.47;5097563;27;41881;-85
2024/04/05 11:50:37;;;;;;;2.72;0.90;;;;;;;33.70;29.30;98668.22;5097605;27;41600;-88
2024/04/05 11:53:05;;;;;;;2.95;0.85;;;;;;;33.86;28.76;98673.75;5114406;27;40639;-83
2024/04/05 11:55:31;;;;;;;1.20;0.60;;;;;;;34.30;28.19;98671.13;5114671;27;42434;-85
2024/04/05 11:57:59;;;;;;;2.47;0.80;;;;;;;35.44;28.31;98659.31;5097619;27;41550;-85
2024/04/05 12:00:26;;;;;;;1.25;0.50;;;;;;;35.40;27.45;98677.44;5097125;27;41038;-85
2024/04/05 12:02:55;;;;;;;1.35;0.60;;;;;;;34.76;27.03;98667.09;5097529;27;39143;-83
2024/04/05 12:05:22;;;;;;;1.05;0.65;;;;;;;34.45;28.41;98632.84;5114266;27;41810;-89
2024/04/05 12:07:50;;;;;;;0.70;0.70;;;;;;;34.03;27.86;98659.16;5114429;27;43272;-83
2024/04/05 12:10:17;;;;;;;1.52;0.70;;;;;;;33.22;27.45;98649.50;5114624;27;42896;-87
2024/04/05 12:12:44;;;;;;;1.92;0.77;;;;;;;32.42;28.16;98640.22;5097535;27;40815;-85
2024/04/05 12:15:11;;;;;;;1.77;0.85;;;;;;;31.75;29.15;98622.53;5114380;27;41185;-86
2024/04/05 12:17:40;;;;;;;1.13;0.63;;;;;;;31.53;29.61;98648.78;5114923;27;41830;-84
2024/04/05 12:20:10;;;;;;;3.30;0.90;;;;;;;31.14;29.63;98650.25;5118507;27;42378;-85
2024/04/05 12:22:38;;;;;;;0.85;0.63;;;;;;;30.81;30.62;98637.81;5100986;27;39504;-85
2024/04/05 12:25:06;;;;;;;2.90;0.70;;;;;;;30.56;30.66;98623.44;5100956;27;41157;-89
2024/04/05 12:27:34;;;;;;;1.10;0.80;;;;;;;30.16;30.92;98628.53;5100322;27;43779;-83
2024/04/05 12:30:00;;;;;;;1.50;0.70;;;;;;;29.67;32.30;98574.81;5117570;27;42268;-86
2024/04/05 12:32:28;;;;;;;1.13;0.83;;;;;;;29.59;33.73;98589.56;5116876;27;38967;-85
2024/04/05 12:34:56;;;;;;;2.40;1.20;;;;;;;29.21;32.70;98576.00;5117958;27;40851;-84
2024/04/05 12:37:27;;;;;;;1.10;0.77;;;;;;;28.65;33.07;98579.53;5117423;27;42964;-84
2024/04/05 12:39:54;;;;;;;0.90;0.90;;;;;;;28.28;33.66;98580.31;5101128;27;43450;-83
2024/04/05 12:42:22;;;;;;;1.10;1.00;;;;;;;28.02;34.80;98582.06;5100315;27;40305;-87
2024/04/05 12:44:50;;;;;;;1.70;0.90;;;;;;;27.79;35.37;98581.72;5100360;27;40952;-84
2024/04/05 12:47:17;;;;;;;2.63;0.80;;;;;;;27.58;35.31;98598.25;5117251;27;41908;-84
2024/04/05 12:49:43;;;;;;;1.10;1.00;;;;;;;27.43;35.47;98621.06;5136101;27;42752;-84
2024/04/05 12:52:11;;;;;;;1.43;0.87;;;;;;;27.10;36.98;98588.41;5100366;27;41520;-86
2024/04/05 12:54:39;;;;;;;1.70;0.60;;;;;;;26.87;35.63;98614.25;5117451;27;42009;-84
2024/04/05 12:57:07;;;;;;;0.87;0.80;;;;;;;26.59;35.25;98570.91;5116932;27;43895;-83
2024/04/05 12:59:34;;;;;;;1.47;0.80;;;;;;;26.34;36.31;98584.22;5099918;27;42260;-83
2024/04/05 13:02:01;;;;;;;0.93;0.80;;;;;;;26.22;36.35;98574.94;5100187;27;40203;-84
2024/04/05 13:04:28;;;;;;;1.90;1.13;;;;;;;26.20;36.85;98564.31;5134411;27;42773;-85
2024/04/05 13:07:00;;;;;;;1.80;1.13;;;;;;;26.38;37.26;98555.63;5116825;27;43108;-86
2024/04/05 13:09:26;;;;;;;1.23;0.80;;;;;;;26.62;36.47;98551.50;5099928;27;42599;-84
2024/04/05 13:11:56;;;;;;;1.53;0.80;;;;;;;26.84;36.80;98542.97;5117123;27;38603;-86
2024/04/05 13:14:25;;;;;;;1.00;0.70;;;;;;;27.43;35.86;98558.50;5116774;27;42061;-82
2024/04/05 13:16:55;;;;;;;1.20;0.70;;;;;;;27.99;35.17;98554.41;5134009;27;43765;-84
2024/04/05 13:19:22;;;;;;;1.73;0.80;;;;;;;28.38;34.95;98559.75;5134441;27;42040;-86
2024/04/05 13:21:49;;;;;;;1.27;0.90;;;;;;;28.34;34.70;98547.59;5116559;27;41744;-84
2024/04/05 13:24:16;;;;;;;2.10;0.90;;;;;;;28.24;35.11;98556.25;5100023;27;42033;-85
2024/04/05 13:26:44;;;;;;;0.73;0.70;;;;;;;27.58;34.60;98508.47;5135285;27;42646;-84
2024/04/05 13:29:12;;;;;;;0.93;0.67;;;;;;;27.57;35.39;98561.25;5116587;27;41505;-84
2024/04/05 13:31:39;;;;;;;0.93;0.83;;;;;;;27.21;35.87;98561.63;5098851;27;38987;-85
2024/04/05 13:34:07;;;;;;;1.97;0.90;;;;;;;26.84;36.21;98570.13;5116565;27;40877;-85
2024/04/05 13:36:34;;;;;;;1.10;0.97;;;;;;;26.57;36.66;98565.72;5116546;27;43174;-83
2024/04/05 13:39:01;;;;;;;1.73;0.93;;;;;;;26.24;36.45;98570.16;5118026;27;42440;-85
2024/04/05 13:41:29;;;;;;;1.23;0.70;;;;;;;25.83;36.21;98541.16;5100543;27;39135;-86
2024/04/05 13:43:56;;;;;;;1.27;0.80;;;;;;;25.78;36.56;98549.06;5117707;27;42731;-84
2024/04/05 13:46:25;;;;;;;1.13;0.90;;;;;;;25.65;37.12;98546.25;5128457;27;41471;-82
2024/04/05 13:48:52;;;;;;;2.13;0.90;;;;;;;25.41;37.76;98521.25;5107079;27;42035;-85
2024/04/05 13:51:24;;;;;;;0.77;0.70;;;;;;;25.39;37.58;98506.22;5100096;27;38546;-83
2024/04/05 13:53:51;;;;;;;1.50;1.00;;;;;;;25.36;37.47;98512.03;5131645;27;42943;-85
2024/04/05 13:56:19;;;;;;;0.87;0.70;;;;;;;25.45;37.54;98519.00;5119378;27;41867;-83
2024/04/05 13:58:46;;;;;;;0.93;0.70;;;;;;;25.38;37.41;98523.53;5119814;27;43381;-82
2024/04/05 14:01:13;;;;;;;1.43;0.80;;;;;;;25.25;37.52;98524.28;5103069;27;40076;-84
2024/04/05 14:03:42;;;;;;;1.80;0.93;;;;;;;25.16;37.88;98533.59;5135102;27;44095;-82
2024/04/05 14:06:10;;;;;;;2.57;0.90;;;;;;;24.90;38.76;98511.66;5116276;27;43408;-83
2024/04/05 14:08:36;;;;;;;1.40;0.77;;;;;;;24.80;38.46;98508.44;5116512;27;43199;-85
2024/04/05 14:11:05;;;;;;;1.40;0.87;;;;;;;24.74;38.48;98528.16;5116793;27;40892;-84
2024/04/05 14:13:32;;;;;;;2.20;0.93;;;;;;;24.59;39.14;98498.47;5099159;27;40635;-83
2024/04/05 14:16:00;;;;;;;1.10;0.70;;;;;;;24.64;39.00;98536.63;5115981;27;42244;-84
2024/04/05 14:18:27;;;;;;;1.70;1.17;;;;;;;24.48;39.39;98532.28;5115888;27;43025;-85
2024/04/05 14:20:57;;;;;;;1.10;0.70;;;;;;;24.51;39.78;98550.88;5098787;27;40267;-83
2024/04/05 14:23:24;;;;;;;1.83;0.80;;;;;;;24.43;39.66;98563.69;5116062;27;41863;-81
2024/04/05 14:25:54;;;;;;;1.00;0.70;;;;;;;24.29;39.52;98573.53;5098696;27;43302;-85
2024/04/05 14:28:21;;;;;;;2.70;0.97;;;;;;;24.11;39.93;98579.28;5098928;27;42647;-85
2024/04/05 14:30:55;;;;;;;2.07;0.70;;;;;;;23.98;40.48;98571.84;5115193;27;41024;-82
2024/04/05 14:33:22;;;;;;;0.93;0.73;;;;;;;23.95;40.03;98576.81;5115846;27;42437;-83
2024/04/05 14:35:59;;;;;;;1.00;0.70;;;;;;;23.95;40.36;98583.06;5132889;27;43384;-82
2024/04/05 14:38:25;;;;;;;1.10;0.70;;;;;;;23.82;40.64;98561.25;5099371;27;42637;-83
2024/04/05 14:40:53;;;;;;;1.37;0.70;;;;;;;23.77;40.88;98573.63;5115516;27;38977;-83
2024/04/05 14:43:21;;;;;;;0.60;0.60;;;;;;;23.64;41.07;98576.97;5099280;27;41120;-82
2024/04/05 14:45:58;;;;;;;1.23;0.60;;;;;;;23.69;41.67;98571.88;5115191;27;41595;-84
2024/04/05 14:48:25;;;;;;;3.60;0.80;;;;;;;23.60;42.16;98556.78;5115953;27;44524;-86
2024/04/05 14:50:54;;;;;;;0.93;0.63;;;;;;;23.68;42.24;98572.06;5115526;27;38575;-83
2024/04/05 14:53:22;;;;;;;1.40;0.70;;;;;;;23.46;42.27;98552.16;5098319;27;40836;-84
2024/04/05 14:55:56;;;;;;;1.10;0.80;;;;;;;23.51;40.89;98564.09;5098531;27;42424;-86
2024/04/05 14:58:24;;;;;;;2.70;0.90;;;;;;;23.68;40.95;98586.41;5098701;27;41202;-82
2024/04/05 15:00:52;;;;;;;1.80;1.17;;;;;;;23.69;40.66;98574.56;5098081;27;39083;-85
2024/04/05 15:03:20;;;;;;;1.70;0.53;;;;;;;23.80;40.19;98582.22;5115700;27;41101;-81
2024/04/05 15:05:47;;;;;;;2.60;0.90;;;;;;;23.82;40.68;98590.16;5097723;27;42294;-84
2024/04/05 15:08:14;;;;;;;1.50;0.80;;;;;;;23.85;39.93;98596.03;5098142;27;41164;-84
2024/04/05 15:10:42;;;;;;;1.17;0.80;;;;;;;23.93;40.24;98595.94;5132045;27;41034;-83
2024/04/05 15:13:10;;;;;;;1.30;0.80;;;;;;;23.98;39.78;98581.84;5133556;27;41845;-82
2024/04/05 15:15:36;;;;;;;2.13;0.80;;;;;;;24.10;40.39;98580.34;5114653;27;41990;-82
2024/04/05 15:18:04;;;;;;;1.03;0.93;;;;;;;24.03;39.52;98556.91;5115010;27;40795;-82
2024/04/05 15:20:31;;;;;;;2.20;0.73;;;;;;;24.14;39.46;98576.22;5114471;27;40043;-82
2024/04/05 15:22:58;;;;;;;2.57;0.90;;;;;;;24.12;39.64;98572.00;5132322;27;42271;-84
2024/04/05 15:25:25;;;;;;;1.83;0.93;;;;;;;23.88;38.67;98570.47;5115112;27;43510;-84
2024/04/05 15:27:54;;;;;;;0.90;0.67;;;;;;;23.85;39.27;98596.03;5098111;27;41180;-84
2024/04/05 15:30:21;;;;;;;0.87;0.70;;;;;;;23.51;39.77;98549.75;5114537;27;39171;-84
2024/04/05 15:32:49;;;;;;;1.23;1.00;;;;;;;23.44;39.54;98559.59;5111963;27;42104;-82
2024/04/05 15:35:15;;;;;;;2.30;0.97;;;;;;;23.50;39.96;98594.88;5114605;27;44494;-83
2024/04/05 15:37:43;;;;;;;1.47;0.93;;;;;;;23.45;40.43;98596.44;5097906;27;41249;-84
2024/04/05 15:40:10;;;;;;;1.93;0.97;;;;;;;23.36;40.56;98601.06;5133195;27;40212;-83
2024/04/05 15:42:38;;;;;;;0.63;0.63;;;;;;;23.32;40.99;98612.44;5114772;27;41862;-82
2024/04/05 15:45:07;;;;;;;1.20;0.80;;;;;;;23.25;41.25;98607.72;5114652;27;43671;-81
2024/04/05 15:47:34;;;;;;;1.40;0.70;;;;;;;23.12;41.76;98588.59;5097583;27;41430;-81
2024/04/05 15:50:01;;;;;;;0.70;0.67;;;;;;;23.11;41.30;98597.75;5097918;27;39622;-83
2024/04/05 15:52:29;;;;;;;1.23;1.00;;;;;;;22.99;41.60;98593.81;5114915;27;43567;-83
2024/04/05 15:54:55;;;;;;;0.70;0.70;;;;;;;22.97;42.07;98595.84;5117384;27;42916;-82
2024/04/05 15:57:23;;;;;;;2.97;1.10;;;;;;;23.02;42.23;98608.78;5136314;27;42458;-82
2024/04/05 15:59:49;;;;;;;1.23;0.80;;;;;;;23.00;42.40;98625.16;5101400;27;39255;-82
2024/04/05 16:02:19;;;;;;;1.20;0.73;;;;;;;22.98;42.26;98604.78;5101034;27;40486;-84
2024/04/05 16:04:46;;;;;;;0.93;0.70;;;;;;;22.98;42.41;98605.63;5118388;27;43740;-82
2024/04/05 16:07:14;;;;;;;1.40;1.00;;;;;;;23.02;42.02;98601.53;5118146;27;41068;-83
2024/04/05 16:09:40;;;;;;;0.60;0.60;;;;;;;23.23;42.16;98608.97;5101272;27;40433;-82
2024/04/05 16:12:09;;;;;;;2.27;1.17;;;;;;;23.40;41.66;98610.47;5117766;27;40854;-81
2024/04/05 16:14:36;;;;;;;1.37;0.70;;;;;;;23.37;41.46;98589.22;5136347;27;42688;-84
2024/04/05 16:17:04;;;;;;;3.10;0.70;;;;;;;23.36;42.04;98594.84;5117937;27;41521;-82
2024/04/05 16:19:32;;;;;;;1.43;0.80;;;;;;;23.34;42.11;98599.56;5100954;27;38709;-85
2024/04/05 16:21:59;;;;;;;1.03;0.80;;;;;;;23.31;41.56;98610.75;5100852;27;40675;-81
2024/04/05 16:24:27;;;;;;;0.80;0.70;;;;;;;23.17;41.55;98594.31;5118114;27;44167;-82
2024/04/05 16:26:57;;;;;;;2.37;1.00;;;;;;;23.21;41.88;98595.63;5100508;27;41662;-82
2024/04/05 16:29:26;;;;;;;1.70;0.77;;;;;;;23.16;42.12;98587.22;5135967;27;41004;-83
2024/04/05 16:31:53;;;;;;;1.33;0.87;;;;;;;23.17;41.95;98599.72;5116843;27;43400;-82
2024/04/05 16:34:20;;;;;;;1.50;0.90;;;;;;;23.07;42.45;98588.31;5117811;27;44684;-81
2024/04/05 16:36:49;;;;;;;0.60;0.60;;;;;;;23.02;42.33;98581.78;5117578;27;43875;-82
2024/04/05 16:39:15;;;;;;;1.37;0.63;;;;;;;23.09;42.23;98607.91;5118067;27;40062;-83
2024/04/05 16:41:46;;;;;;;1.37;0.90;;;;;;;22.88;42.57;98578.00;5117362;27;41860;-83
2024/04/05 16:44:13;;;;;;;0.93;0.80;;;;;;;22.73;42.83;98558.19;5132842;27;42672;-83
2024/04/05 16:46:41;;;;;;;1.77;0.80;;;;;;;22.92;43.18;98600.94;5135891;27;42495;-82
2024/04/05 16:49:07;;;;;;;2.37;0.70;;;;;;;22.85;43.22;98605.38;5117463;27;38907;-83
2024/04/05 16:51:36;;;;;;;1.37;0.70;;;;;;;22.73;43.54;98612.19;5135770;27;42403;-81
2024/04/05 16:54:05;;;;;;;1.30;0.90;;;;;;;22.55;43.82;98624.09;5100244;27;41911;-84
2024/04/05 16:56:33;;;;;;;0.77;0.73;;;;;;;22.43;43.40;98622.81;5116933;27;43384;-84
2024/04/05 16:59:00;;;;;;;1.00;0.50;;;;;;;22.25;43.22;98619.53;5136126;27;41160;-82
2024/04/05 17:01:28;;;;;;;1.17;0.53;;;;;;;22.20;43.27;98633.53;5099735;27;41991;-81
2024/04/05 17:03:57;;;;;;;1.20;0.83;;;;;;;22.10;43.20;98641.00;5133996;27;42942;-82
2024/04/05 17:06:26;;;;;;;1.67;0.73;;;;;;;22.00;43.27;98624.19;5099828;27;43514;-83
2024/04/05 17:08:55;;;;;;;0.60;0.60;;;;;;;21.90;43.57;98636.13;5135588;27;39662;-80
2024/04/05 17:11:24;;;;;;;1.40;0.83;;;;;;;21.72;43.86;98626.44;5116301;27;40455;-81
2024/04/05 17:13:51;;;;;;;1.33;0.70;;;;;;;21.79;43.85;98640.88;5117225;27;42893;-81
2024/04/05 17:16:19;;;;;;;0.77;0.70;;;;;;;21.68;44.44;98635.84;5116423;27;42319;-80
2024/04/05 17:18:46;;;;;;;0.50;0.50;;;;;;;21.64;44.51;98647.97;5117062;27;38938;-81
2024/04/05 17:21:14;;;;;;;0.67;0.60;;;;;;;21.59;44.30;98639.59;5099822;27;41844;-80
2024/04/05 17:23:40;;;;;;;0.87;0.60;;;;;;;21.51;44.54;98647.69;5099932;27;43241;-80
2024/04/05 17:26:11;;;;;;;0.90;0.70;;;;;;;21.47;44.39;98640.94;5116258;27;44235;-80
2024/04/05 17:28:39;;;;;;;2.07;0.53;;;;;;;21.43;44.92;98647.69;5099750;27;39172;-81
2024/04/05 17:31:08;;;;;;;1.80;0.90;;;;;;;21.37;45.22;98653.75;5116148;27;41833;-80
2024/04/05 17:33:37;;;;;;;1.23;0.70;;;;;;;21.30;45.25;98645.50;5134835;27;43921;-82
2024/04/05 17:36:06;;;;;;;0.90;0.67;;;;;;;21.21;45.63;98645.66;5116459;27;43164;-80
2024/04/05 17:38:33;;;;;;;1.07;0.60;;;;;;;21.17;45.70;98662.13;5116562;27;39926;-80
2024/04/05 17:41:01;;;;;;;1.30;0.70;;;;;;;21.03;45.89;98643.09;5134968;27;41893;-81
2024/04/05 17:43:27;;;;;;;2.50;0.90;;;;;;;20.97;45.99;98643.78;5133758;27;43507;-82
2024/04/05 17:45:56;;;;;;;1.37;0.70;;;;;;;20.96;46.28;98656.41;5099466;27;41572;-81
2024/04/05 17:48:22;;;;;;;0.77;0.50;;;;;;;20.95;46.00;98670.88;5099557;27;39571;-81
2024/04/05 17:50:50;;;;;;;0.93;0.83;;;;;;;20.93;46.09;98664.78;5134566;27;42674;-80
2024/04/05 17:53:16;;;;;;;1.30;0.70;;;;;;;20.87;46.61;98673.56;5116330;27;42447;-81
2024/04/05 17:55:43;;;;;;;0.90;0.90;;;;;;;20.84;46.66;98673.88;5098960;27;43630;-79
2024/04/05 17:58:11;;;;;;;2.17;0.87;;;;;;;20.68;46.60;98652.31;5135113;27;40042;-81
2024/04/05 18:00:37;;;;;;;1.73;0.80;;;;;;;20.65;46.55;98655.31;5116271;27;42449;-83
2024/04/05 18:03:06;;;;;;;0.87;0.63;;;;;;;20.52;46.77;98638.81;5099504;27;41918;-81
2024/04/05 18:05:33;;;;;;;0.93;0.70;;;;;;;20.55;46.87;98649.22;5134349;27;42397;-83
2024/04/05 18:08:00;;;;;;;1.53;0.70;;;;;;;20.49;47.16;98649.91;5099752;27;38836;-83
2024/04/05 18:10:27;;;;;;;0.77;0.70;;;;;;;20.45;47.19;98649.38;5120412;27;40907;-80
2024/04/05 18:12:56;;;;;;;2.87;0.70;;;;;;;20.43;47.33;98656.75;5104012;27;41633;-82
2024/04/05 18:15:22;;;;;;;1.30;0.67;;;;;;;20.42;47.40;98664.00;5097823;27;41189;-79
2024/04/05 18:17:50;;;;;;;2.50;1.00;;;;;;;20.49;47.58;98682.19;5116420;27;39100;-80
2024/04/05 18:20:18;;;;;;;1.63;0.83;;;;;;;20.46;47.22;98685.19;5116124;27;41102;-80
2024/04/05 18:22:45;;;;;;;1.53;0.80;;;;;;;20.44;47.40;98688.03;5134720;27;42731;-82
2024/04/05 18:25:13;;;;;;;1.60;0.83;;;;;;;20.43;47.64;98689.88;5116035;27;41243;-82
2024/04/05 18:27:41;;;;;;;1.00;0.73;;;;;;;20.30;47.81;98661.72;5115917;27;39833;-81
2024/04/05 18:30:10;;;;;;;1.70;0.80;;;;;;;20.36;47.59;98672.72;5133319;27;42449;-83
2024/04/05 18:32:37;;;;;;;1.77;0.90;;;;;;;20.31;47.76;98658.88;5115631;27;44171;-83
2024/04/05 18:35:05;;;;;;;1.03;0.60;;;;;;;20.16;47.86;98655.09;5116125;27;42446;-81
2024/04/05 18:37:34;;;;;;;0.83;0.57;;;;;;;20.34;48.07;98684.63;5115802;27;40345;-80
2024/04/05 18:40:01;;;;;;;1.30;0.70;;;;;;;20.30;48.37;98683.25;5115909;27;40633;-82
2024/04/05 18:42:29;;;;;;;0.93;0.77;;;;;;;20.23;48.51;98693.81;5098627;27;41891;-81
2024/04/05 18:44:56;;;;;;;0.87;0.63;;;;;;;20.22;48.48;98691.28;5133896;27;42292;-80
2024/04/05 18:47:24;;;;;;;3.03;0.77;;;;;;;20.21;48.70;98689.59;5134128;27;40290;-82
2024/04/05 18:49:50;;;;;;;1.27;0.80;;;;;;;20.08;48.38;98669.38;5133121;27;42492;-82
2024/04/05 18:52:22;;;;;;;2.03;0.70;;;;;;;20.08;48.35;98673.91;5098592;27;42930;-80
2024/04/05 18:54:50;;;;;;;0.90;0.80;;;;;;;20.16;48.74;98692.75;5115497;27;41734;-80
2024/04/05 18:57:23;;;;;;;0.50;0.50;;;;;;;20.00;48.45;98666.66;5098390;27;40410;-80
2024/04/05 18:59:50;;;;;;;1.60;0.73;;;;;;;20.09;48.78;98686.34;5115841;27;40880;-80
2024/04/05 19:02:20;;;;;;;0.90;0.70;;;;;;;19.87;48.90;98655.50;5115319;27;42869;-82
2024/04/05 19:04:47;;;;;;;0.70;0.70;;;;;;;20.02;48.92;98685.31;5138108;27;42891;-81
2024/04/05 19:07:15;;;;;;;1.67;0.80;;;;;;;20.00;49.17;98681.94;5103323;27;38966;-79
2024/04/05 19:09:41;;;;;;;2.23;0.73;;;;;;;19.97;49.36;98683.09;5120511;27;42908;-81